Time;durP1;ratioP1;P1;durP2;ratioP2;P2;SDS_P1;SDS_P2;PMS_P1;PMS_P2;Temp;Humidity;BMP_temperature;BMP_pressure;BME280_temperature;BME280_humidity;BME280_pressure;Samples;Min_cycle;Max_cycle;Signal;HPM_P1;HPM_P2
2022/08/31 00:05:26;;;;;;;4.30;3.10;;;;;;;15.40;79.56;99349.38;5058318;28;20043;-81
2022/08/31 00:07:52;;;;;;;5.05;2.90;;;;;;;15.41;80.29;99372.53;5060108;28;20116;-80
2022/08/31 00:10:19;;;;;;;5.95;3.45;;;;;;;15.29;80.11;99347.78;5059499;28;20037;-80
2022/08/31 00:12:47;;;;;;;3.95;3.00;;;;;;;15.45;80.27;99360.19;5039687;28;20036;-80
2022/08/31 00:15:17;;;;;;;8.25;3.83;;;;;;;15.45;80.26;99365.56;5059175;28;20028;-80
2022/08/31 00:17:42;;;;;;;6.25;4.00;;;;;;;15.26;80.70;99351.00;5056885;28;20115;-80
2022/08/31 00:20:10;;;;;;;4.30;3.90;;;;;;;15.40;80.68;99360.16;5056244;28;20523;-80
2022/08/31 00:22:35;;;;;;;5.32;3.10;;;;;;;15.36;80.36;99356.38;5057258;28;20059;-80
2022/08/31 00:25:01;;;;;;;5.15;3.38;;;;;;;15.36;79.95;99351.00;5060233;28;20044;-81
2022/08/31 00:27:26;;;;;;;4.72;2.90;;;;;;;15.30;80.71;99366.34;5057273;28;20095;-80
2022/08/31 00:29:52;;;;;;;3.28;2.97;;;;;;;15.40;79.97;99374.41;5056385;28;20733;-81
2022/08/31 00:32:18;;;;;;;5.75;2.67;;;;;;;15.21;80.40;99359.03;5060590;28;20035;-80
2022/08/31 00:34:43;;;;;;;5.35;3.13;;;;;;;15.57;79.09;99368.84;5058759;28;20130;-80
2022/08/31 00:37:08;;;;;;;3.72;3.28;;;;;;;15.37;80.21;99368.78;5037387;28;20040;-80
2022/08/31 00:39:34;;;;;;;6.22;3.10;;;;;;;15.17;81.29;99366.84;5054763;28;20074;-80
2022/08/31 00:41:59;;;;;;;3.28;2.97;;;;;;;15.70;78.78;99371.00;5059437;28;20047;-80
2022/08/31 00:44:25;;;;;;;5.75;2.67;;;;;;;15.91;76.67;99350.25;5053207;28;20028;-80
2022/08/31 00:46:50;;;;;;;3.80;3.10;;;;;;;15.57;77.43;99360.75;5057673;28;20534;-80
2022/08/31 00:49:23;;;;;;;4.15;3.33;;;;;;;15.50;79.72;99379.03;5075405;28;20096;-80
2022/08/31 00:51:51;;;;;;;5.00;3.40;;;;;;;15.56;79.44;99376.09;5052809;28;20085;-81
2022/08/31 00:54:21;;;;;;;4.15;2.85;;;;;;;15.62;77.41;99374.19;5051309;28;20032;-80
2022/08/31 00:56:46;;;;;;;4.68;2.60;;;;;;;16.01;77.41;99380.66;5054945;28;20119;-80
2022/08/31 00:59:14;;;;;;;5.05;3.40;;;;;;;15.57;78.54;99356.16;5039015;28;20035;-81
2022/08/31 01:01:39;;;;;;;4.68;3.40;;;;;;;15.99;75.98;99363.97;5057059;28;20035;-81
2022/08/31 01:04:05;;;;;;;3.53;2.40;;;;;;;16.40;72.82;99368.22;5054596;28;22805;-81
2022/08/31 01:06:31;;;;;;;5.15;3.13;;;;;;;15.54;78.65;99355.91;5053643;28;20098;-80
2022/08/31 01:09:00;;;;;;;4.22;3.00;;;;;;;16.07;75.51;99368.84;5060466;28;20025;-80
2022/08/31 01:11:26;;;;;;;2.42;2.22;;;;;;;16.31;72.74;99366.38;5058087;28;20040;-80
2022/08/31 01:13:51;;;;;;;2.75;2.50;;;;;;;16.33;73.07;99354.25;5057849;28;20444;-81
2022/08/31 01:16:25;;;;;;;4.28;3.00;;;;;;;16.33;74.62;99380.38;5040085;28;20041;-80
2022/08/31 01:18:55;;;;;;;3.85;3.55;;;;;;;15.67;77.80;99385.78;5054256;28;20385;-80
2022/08/31 01:21:30;;;;;;;3.20;2.90;;;;;;;16.38;74.82;99385.75;5057851;28;20036;-80
2022/08/31 01:24:00;;;;;;;8.23;2.65;;;;;;;17.41;68.99;99372.41;5069720;28;21650;-81
2022/08/31 01:26:28;;;;;;;3.05;1.75;;;;;;;17.42;68.87;99377.50;5055613;28;20092;-80
2022/08/31 01:28:59;;;;;;;3.05;2.75;;;;;;;16.60;71.76;99388.16;5055027;28;20614;-80
2022/08/31 01:31:36;;;;;;;2.63;2.40;;;;;;;17.01;69.85;99379.63;5055067;28;20078;-81
2022/08/31 01:34:01;;;;;;;2.95;2.70;;;;;;;17.76;67.50;99394.56;5057293;28;20073;-80
2022/08/31 01:36:28;;;;;;;2.45;2.25;;;;;;;17.54;68.05;99388.00;5056798;28;20032;-80
2022/08/31 01:38:53;;;;;;;8.35;2.88;;;;;;;17.39;68.74;99390.75;5060235;28;20676;-80
2022/08/31 01:41:19;;;;;;;3.53;2.20;;;;;;;17.86;66.81;99366.69;5041365;28;20052;-81
2022/08/31 01:43:45;;;;;;;4.05;2.92;;;;;;;17.19;70.00;99376.28;5059833;28;20039;-81
2022/08/31 01:46:12;;;;;;;3.10;2.80;;;;;;;17.21;68.99;99373.31;5059324;28;20392;-81
2022/08/31 01:48:40;;;;;;;2.45;2.25;;;;;;;17.73;67.10;99387.03;5055004;28;20041;-81
2022/08/31 01:51:05;;;;;;;3.92;2.55;;;;;;;17.59;66.33;99309.66;5052828;28;20052;-80
2022/08/31 01:53:31;;;;;;;3.13;2.30;;;;;;;18.17;65.66;99376.13;5061323;28;20770;-81
2022/08/31 01:55:56;;;;;;;7.40;3.20;;;;;;;17.42;68.70;99371.28;5050671;28;20356;-81
2022/08/31 01:58:22;;;;;;;4.13;2.90;;;;;;;18.07;66.14;99375.41;5057883;28;20076;-80
2022/08/31 02:00:47;;;;;;;2.30;2.00;;;;;;;18.15;65.79;99369.41;5056478;28;20396;-81
2022/08/31 02:03:13;;;;;;;2.70;2.08;;;;;;;18.20;65.82;99383.66;5058379;28;20135;-80
2022/08/31 02:05:38;;;;;;;2.50;2.30;;;;;;;18.12;65.93;99386.97;5054486;28;20035;-81
2022/08/31 02:08:06;;;;;;;2.78;2.58;;;;;;;17.93;66.37;99365.25;5051981;28;20841;-81
2022/08/31 02:10:32;;;;;;;2.72;2.25;;;;;;;17.87;66.03;99350.19;5055739;28;20043;-80
2022/08/31 02:12:58;;;;;;;2.58;2.38;;;;;;;17.93;66.63;99365.25;5058225;28;20059;-81
2022/08/31 02:15:23;;;;;;;2.40;2.20;;;;;;;17.82;65.97;99358.31;5055616;28;20029;-80
2022/08/31 02:17:49;;;;;;;2.15;1.98;;;;;;;18.00;65.90;99361.44;5053685;28;20128;-81
2022/08/31 02:20:15;;;;;;;2.80;2.30;;;;;;;17.75;66.86;99359.75;5054019;28;20039;-81
2022/08/31 02:22:41;;;;;;;5.55;2.83;;;;;;;16.50;72.00;99345.84;5055640;28;20059;-80
2022/08/31 02:25:08;;;;;;;2.95;2.75;;;;;;;17.56;67.50;99354.22;5055614;28;20033;-80
2022/08/31 02:27:37;;;;;;;4.57;3.22;;;;;;;17.85;66.73;99360.47;5055796;28;20396;-81
2022/08/31 02:30:10;;;;;;;2.50;2.30;;;;;;;17.91;66.13;99359.34;5058509;28;20078;-81
2022/08/31 02:32:35;;;;;;;2.47;2.28;;;;;;;17.81;66.68;99362.13;5054704;28;21067;-81
2022/08/31 02:35:01;;;;;;;2.38;2.17;;;;;;;17.48;67.54;99356.69;5059287;28;20033;-81
2022/08/31 02:37:27;;;;;;;4.25;2.38;;;;;;;17.83;66.56;99357.25;5067475;28;20047;-81
2022/08/31 02:39:52;;;;;;;2.60;2.40;;;;;;;17.77;66.48;99350.28;5071704;28;20036;-81
2022/08/31 02:42:18;;;;;;;2.72;2.47;;;;;;;17.83;66.13;99354.56;5040196;28;20392;-81
2022/08/31 02:44:43;;;;;;;2.17;1.98;;;;;;;17.88;66.35;99361.81;5057536;28;20040;-81
2022/08/31 02:47:09;;;;;;;2.25;2.15;;;;;;;17.73;65.94;99348.44;5050152;28;20040;-81
2022/08/31 02:49:34;;;;;;;3.50;2.45;;;;;;;17.78;66.12;99346.47;5061568;28;20025;-81
2022/08/31 02:52:00;;;;;;;7.30;3.25;;;;;;;17.92;66.11;99358.25;5056106;28;20035;-81
2022/08/31 02:54:25;;;;;;;2.78;2.25;;;;;;;17.77;65.73;99360.28;5056285;28;20037;-81
2022/08/31 02:56:51;;;;;;;2.70;2.50;;;;;;;16.70;70.81;99340.41;5025058;28;20032;-81
2022/08/31 02:59:18;;;;;;;3.35;2.90;;;;;;;16.90;69.71;99334.09;5063342;28;20393;-81
2022/08/31 03:01:44;;;;;;;4.15;2.95;;;;;;;15.99;74.33;99349.72;5047923;28;20060;-81
2022/08/31 03:04:09;;;;;;;2.42;2.08;;;;;;;16.92;69.61;99340.03;5063516;28;20373;-80
2022/08/31 03:06:34;;;;;;;2.97;2.72;;;;;;;17.08;69.08;99347.75;5053388;28;20029;-80
2022/08/31 03:09:01;;;;;;;5.68;3.05;;;;;;;17.22;67.05;99334.47;5060357;28;20412;-81
2022/08/31 03:11:26;;;;;;;2.97;2.33;;;;;;;17.28;67.30;99313.66;5062656;28;20027;-80
2022/08/31 03:13:52;;;;;;;2.70;2.50;;;;;;;17.53;67.62;99341.28;5062001;28;20040;-80
2022/08/31 03:16:18;;;;;;;2.65;2.10;;;;;;;17.47;67.05;99353.19;5059303;28;20052;-80
2022/08/31 03:18:44;;;;;;;4.30;2.53;;;;;;;17.11;68.64;99343.69;5061922;28;20040;-80
2022/08/31 03:21:10;;;;;;;3.72;2.85;;;;;;;15.68;75.63;99332.78;5058581;28;20056;-80
2022/08/31 03:23:36;;;;;;;3.50;3.15;;;;;;;15.66;75.58;99319.56;5058340;28;20709;-80
2022/08/31 03:26:04;;;;;;;3.10;2.80;;;;;;;15.20;77.96;99344.78;5062517;28;20037;-80
2022/08/31 03:28:30;;;;;;;2.55;2.35;;;;;;;16.18;73.00;99337.31;5059403;28;20041;-80
2022/08/31 03:30:56;;;;;;;2.83;2.53;;;;;;;16.39;71.94;99322.69;5057375;28;20120;-80
2022/08/31 03:33:21;;;;;;;2.55;2.40;;;;;;;16.60;71.40;99331.56;5031538;28;20036;-81
2022/08/31 03:35:46;;;;;;;5.50;2.30;;;;;;;16.81;70.30;99324.97;5029818;28;20082;-80
2022/08/31 03:38:12;;;;;;;2.58;2.38;;;;;;;17.24;68.78;99327.69;5040314;28;20032;-80
2022/08/31 03:40:42;;;;;;;3.17;2.55;;;;;;;16.58;70.93;99325.63;5061707;28;20028;-80
2022/08/31 03:43:09;;;;;;;2.85;2.53;;;;;;;17.05;69.41;99320.53;5059921;28;20476;-80
2022/08/31 03:45:36;;;;;;;2.30;2.10;;;;;;;17.12;69.09;99329.13;5043716;28;20111;-81
2022/08/31 03:48:05;;;;;;;3.08;2.47;;;;;;;16.95;69.90;99339.47;5056937;28;21136;-80
2022/08/31 03:50:31;;;;;;;2.67;2.47;;;;;;;16.37;71.74;99358.00;5058850;28;21842;-81
2022/08/31 03:52:57;;;;;;;2.42;2.20;;;;;;;17.06;69.60;99359.91;5045299;28;20493;-81
2022/08/31 03:55:22;;;;;;;2.88;2.63;;;;;;;16.66;71.68;99341.22;5057806;28;20063;-80
2022/08/31 03:57:48;;;;;;;2.55;2.35;;;;;;;15.74;75.31;99347.84;5039111;28;20036;-81
2022/08/31 04:00:13;;;;;;;3.45;2.70;;;;;;;15.57;75.01;99337.34;5038826;28;20082;-80
2022/08/31 04:02:39;;;;;;;3.33;3.03;;;;;;;15.09;77.67;99339.66;5054961;28;20056;-81
2022/08/31 04:05:06;;;;;;;5.90;3.10;;;;;;;15.34;77.16;99361.22;5054560;28;20029;-80
2022/08/31 04:07:35;;;;;;;3.53;2.83;;;;;;;15.30;77.74;99346.69;5058802;28;20043;-80
2022/08/31 04:10:01;;;;;;;3.83;3.17;;;;;;;14.94;79.11;99343.91;5045921;28;20042;-80
2022/08/31 04:12:26;;;;;;;3.03;2.60;;;;;;;14.46;81.21;99363.06;5041685;28;20083;-80
2022/08/31 04:14:52;;;;;;;4.63;4.15;;;;;;;14.37;82.84;99367.34;5047431;28;20039;-81
2022/08/31 04:17:17;;;;;;;4.55;3.78;;;;;;;14.43;82.29;99360.91;5037631;28;20772;-79
2022/08/31 04:19:42;;;;;;;3.92;3.35;;;;;;;15.65;76.28;99354.84;5059402;28;20047;-79
2022/08/31 04:22:08;;;;;;;3.55;3.25;;;;;;;15.70;76.86;99376.38;5053782;28;20036;-79
2022/08/31 04:24:34;;;;;;;3.58;3.22;;;;;;;14.92;80.05;99381.00;5060926;28;20024;-79
2022/08/31 04:26:59;;;;;;;5.30;3.90;;;;;;;15.23;78.82;99368.47;5053484;28;20055;-79
2022/08/31 04:29:25;;;;;;;7.55;3.65;;;;;;;14.71;80.97;99381.19;5044083;28;20079;-79
2022/08/31 04:31:50;;;;;;;3.30;2.78;;;;;;;15.44;78.24;99388.19;5039312;28;20052;-80
2022/08/31 04:34:16;;;;;;;4.30;3.70;;;;;;;14.90;80.19;99388.53;5058624;28;20024;-80
2022/08/31 04:36:44;;;;;;;5.80;3.47;;;;;;;14.66;81.32;99375.78;5055543;28;20119;-79
2022/08/31 04:39:10;;;;;;;4.25;2.83;;;;;;;15.88;75.82;99369.66;5054837;28;20033;-79
2022/08/31 04:41:38;;;;;;;3.30;2.92;;;;;;;15.72;75.88;99366.16;5057526;28;20033;-79
2022/08/31 04:44:04;;;;;;;3.67;3.30;;;;;;;14.98;78.67;99369.19;5055241;28;20029;-79
2022/08/31 04:46:31;;;;;;;3.22;2.60;;;;;;;14.92;79.74;99372.13;5052695;28;20029;-78
2022/08/31 04:48:57;;;;;;;3.30;3.00;;;;;;;14.87;80.36;99386.34;5055629;28;20036;-78
2022/08/31 04:51:29;;;;;;;2.85;2.58;;;;;;;15.82;76.32;99384.97;5057607;28;20111;-79
2022/08/31 04:53:56;;;;;;;8.85;3.15;;;;;;;15.04;78.85;99378.09;5053817;28;20083;-78
2022/08/31 04:56:25;;;;;;;3.90;3.55;;;;;;;14.64;82.05;99392.19;5054836;28;20024;-79
2022/08/31 04:58:54;;;;;;;5.32;3.47;;;;;;;14.77;80.54;99382.81;5059403;28;20103;-78
2022/08/31 05:01:22;;;;;;;9.15;5.20;;;;;;;14.05;83.97;99366.53;5056001;28;21576;-78
2022/08/31 05:03:54;;;;;;;4.93;3.38;;;;;;;13.93;84.32;99373.97;5057044;28;20028;-80
2022/08/31 05:06:23;;;;;;;4.43;3.28;;;;;;;14.09;84.42;99381.88;5057894;28;20491;-78
2022/08/31 05:08:53;;;;;;;3.55;2.85;;;;;;;14.05;84.87;99393.38;5061383;28;20035;-78
2022/08/31 05:11:20;;;;;;;5.32;3.88;;;;;;;13.63;85.85;99395.97;5054505;28;20085;-78
2022/08/31 05:13:46;;;;;;;4.18;3.30;;;;;;;14.25;83.54;99377.41;5057007;28;20051;-77
2022/08/31 05:16:14;;;;;;;3.20;2.88;;;;;;;14.34;82.44;99385.81;5050499;28;20028;-78
2022/08/31 05:18:42;;;;;;;6.20;3.25;;;;;;;14.43;82.85;99403.06;5081100;28;20032;-78
2022/08/31 05:21:26;;;;;;;3.75;3.40;;;;;;;14.71;80.52;99379.31;5066793;28;20040;-78
2022/08/31 05:23:56;;;;;;;3.97;3.15;;;;;;;14.21;82.87;99389.75;5062439;28;20404;-77
2022/08/31 05:26:26;;;;;;;5.15;2.97;;;;;;;14.74;80.60;99394.91;5064588;28;20025;-78
2022/08/31 05:28:51;;;;;;;2.25;2.05;;;;;;;14.83;80.57;99385.28;5061879;28;20024;-78
2022/08/31 05:31:17;;;;;;;4.32;2.83;;;;;;;15.01;79.84;99400.94;5066924;28;20036;-78
2022/08/31 05:33:44;;;;;;;9.27;4.40;;;;;;;14.66;81.25;99410.72;5067288;28;20024;-78
2022/08/31 05:36:10;;;;;;;2.72;2.53;;;;;;;14.69;81.29;99420.94;5063134;28;20056;-78
2022/08/31 05:38:37;;;;;;;7.00;2.97;;;;;;;15.23;78.22;99395.38;5069234;28;20028;-78
2022/08/31 05:41:04;;;;;;;3.15;2.92;;;;;;;14.94;79.52;99408.44;5052004;28;20380;-78
2022/08/31 05:43:31;;;;;;;8.68;3.75;;;;;;;14.68;81.53;99412.06;5066325;28;20485;-78
2022/08/31 05:45:57;;;;;;;4.88;2.92;;;;;;;14.49;82.33;99435.06;5065880;28;20067;-78
2022/08/31 05:48:23;;;;;;;3.88;3.05;;;;;;;15.08;78.98;99397.19;5084022;28;20060;-78
2022/08/31 05:50:48;;;;;;;2.63;2.42;;;;;;;14.99;79.84;99416.53;5068145;28;20079;-78
2022/08/31 05:53:14;;;;;;;8.35;2.50;;;;;;;15.12;80.00;99422.47;5051560;28;20035;-78
2022/08/31 05:55:39;;;;;;;3.15;2.92;;;;;;;14.62;81.47;99421.19;5067748;28;20170;-78
2022/08/31 05:58:05;;;;;;;2.78;2.47;;;;;;;15.31;79.48;99424.41;5049572;28;20035;-78
2022/08/31 06:00:31;;;;;;;5.43;3.30;;;;;;;14.67;81.68;99426.59;5048573;28;20040;-78
2022/08/31 06:02:57;;;;;;;7.13;2.80;;;;;;;14.81;80.94;99426.91;5065483;28;20492;-79
2022/08/31 06:05:23;;;;;;;8.35;3.40;;;;;;;14.89;80.64;99435.31;5063614;28;20476;-78
2022/08/31 06:07:49;;;;;;;3.60;3.30;;;;;;;15.02;80.50;99429.47;5062219;28;20033;-78
2022/08/31 06:10:15;;;;;;;4.68;3.72;;;;;;;15.14;79.52;99414.94;5062324;28;20032;-78
2022/08/31 06:12:42;;;;;;;3.92;2.83;;;;;;;14.53;82.28;99406.63;5027536;28;20029;-78
2022/08/31 06:15:09;;;;;;;4.47;2.53;;;;;;;14.45;82.13;99414.38;5067021;28;20054;-78
2022/08/31 06:17:36;;;;;;;3.65;2.60;;;;;;;15.41;78.62;99415.59;5064296;28;20841;-78
2022/08/31 06:20:03;;;;;;;5.40;2.90;;;;;;;15.12;79.94;99428.66;5066996;28;20479;-78
2022/08/31 06:22:29;;;;;;;6.35;3.45;;;;;;;15.72;77.79;99436.13;5066591;28;20107;-78
2022/08/31 06:24:55;;;;;;;4.75;3.38;;;;;;;14.51;81.62;99429.44;5061712;28;20116;-78
2022/08/31 06:27:20;;;;;;;6.72;2.95;;;;;;;15.20;80.18;99438.13;5066538;28;20032;-78
2022/08/31 06:29:48;;;;;;;3.75;3.45;;;;;;;15.36;79.29;99451.34;5067560;28;20591;-78
2022/08/31 06:32:14;;;;;;;3.50;3.17;;;;;;;14.87;81.25;99458.16;5068958;28;20054;-78
2022/08/31 06:34:41;;;;;;;4.97;3.15;;;;;;;15.30;80.09;99454.28;5068020;28;20484;-78
2022/08/31 06:37:09;;;;;;;4.10;3.38;;;;;;;15.68;78.57;99460.06;5051298;28;20115;-78
2022/08/31 06:39:35;;;;;;;5.88;3.15;;;;;;;15.40;78.83;99454.31;5070841;28;20512;-79
2022/08/31 06:42:00;;;;;;;4.38;2.92;;;;;;;15.34;78.36;99437.34;5072792;28;20121;-78
2022/08/31 06:44:25;;;;;;;5.10;3.88;;;;;;;15.05;79.58;99414.66;5067527;28;20025;-78
2022/08/31 06:46:52;;;;;;;6.65;3.60;;;;;;;15.77;77.31;99448.78;5085325;28;20039;-78
2022/08/31 06:49:19;;;;;;;3.00;2.80;;;;;;;15.69;77.72;99467.06;5073550;28;20558;-78
2022/08/31 06:51:44;;;;;;;3.47;3.03;;;;;;;15.17;80.29;99452.09;5056913;28;20390;-78
2022/08/31 06:54:12;;;;;;;4.53;3.65;;;;;;;15.75;79.11;99457.91;5064190;28;20031;-78
2022/08/31 06:56:38;;;;;;;7.38;3.70;;;;;;;15.36;79.93;99447.84;5071408;28;20031;-78
2022/08/31 06:59:04;;;;;;;7.47;3.90;;;;;;;15.33;80.23;99451.06;5051588;28;20488;-78
2022/08/31 07:01:32;;;;;;;11.55;3.60;;;;;;;15.70;79.23;99459.81;5062435;28;20033;-78
2022/08/31 07:04:00;;;;;;;7.25;3.03;;;;;;;15.80;77.71;99432.91;5049506;28;20040;-78
2022/08/31 07:06:28;;;;;;;4.43;3.45;;;;;;;16.15;77.00;99465.22;5064629;28;20017;-78
2022/08/31 07:09:00;;;;;;;5.10;3.17;;;;;;;15.99;77.69;99457.44;5066039;28;20039;-78
2022/08/31 07:11:32;;;;;;;9.60;4.35;;;;;;;15.27;80.30;99477.13;5048172;28;20036;-78
2022/08/31 07:13:59;;;;;;;5.20;4.35;;;;;;;15.18;81.68;99472.53;5058610;28;20029;-78
2022/08/31 07:16:26;;;;;;;5.03;3.00;;;;;;;16.10;77.38;99475.19;5066021;28;20033;-78
2022/08/31 07:18:53;;;;;;;6.53;3.60;;;;;;;15.81;78.53;99461.44;5064779;28;20044;-78
2022/08/31 07:21:25;;;;;;;9.75;4.68;;;;;;;15.90;78.99;99464.41;5062026;28;20032;-78
2022/08/31 07:23:52;;;;;;;5.05;4.55;;;;;;;15.97;78.56;99473.84;5078350;28;20029;-78
2022/08/31 07:26:24;;;;;;;7.28;3.28;;;;;;;16.18;77.92;99480.88;5046728;28;20029;-78
2022/08/31 07:29:00;;;;;;;20.90;4.53;;;;;;;16.25;77.27;99477.91;5063437;28;20038;-78
2022/08/31 07:31:41;;;;;;;3.50;3.20;;;;;;;16.24;76.81;99471.69;5064352;28;20032;-78
2022/08/31 07:34:09;;;;;;;6.07;4.60;;;;;;;16.21;78.34;99477.63;5061421;28;20583;-78
2022/08/31 07:42:07;;;;;;;7.07;5.30;;;;;;;16.38;77.49;99488.91;5046925;28;20039;-78
2022/08/31 07:42:09;;;;;;;5.20;4.28;;;;;;;16.06;77.89;99474.91;5060509;28;20131;-78
2022/08/31 07:44:35;;;;;;;5.47;3.92;;;;;;;15.94;78.80;99481.66;5059347;28;20116;-78
2022/08/31 07:47:00;;;;;;;5.53;4.80;;;;;;;15.87;79.03;99489.97;5065070;28;20478;-78
2022/08/31 07:49:26;;;;;;;6.25;4.90;;;;;;;15.68;80.09;99491.56;5060898;28;20032;-78
2022/08/31 07:51:52;;;;;;;4.32;3.40;;;;;;;16.53;76.94;99488.16;5068688;28;20056;-79
2022/08/31 07:54:22;;;;;;;5.57;4.50;;;;;;;16.58;76.50;99485.44;5046072;28;20110;-78
2022/08/31 07:56:49;;;;;;;6.63;5.20;;;;;;;16.07;77.50;99483.81;5065074;28;20039;-78
2022/08/31 07:59:16;;;;;;;8.48;5.68;;;;;;;15.86;79.00;99482.19;5064757;28;20029;-78
2022/08/31 08:01:42;;;;;;;8.23;4.90;;;;;;;16.30;77.89;99497.56;5046132;28;20033;-78
2022/08/31 08:04:11;;;;;;;5.22;4.72;;;;;;;16.11;78.57;99495.66;5066888;28;20016;-78
2022/08/31 08:06:38;;;;;;;6.35;4.75;;;;;;;16.42;76.71;99486.50;5067789;28;20373;-78
2022/08/31 08:09:06;;;;;;;7.78;6.13;;;;;;;15.85;79.18;99484.06;5066082;28;20037;-78
2022/08/31 08:11:35;;;;;;;7.65;6.53;;;;;;;16.07;78.88;99498.09;5068813;28;20041;-78
2022/08/31 08:14:05;;;;;;;9.52;6.55;;;;;;;16.37;77.16;99497.28;5065957;28;20033;-78
2022/08/31 08:16:31;;;;;;;8.02;6.13;;;;;;;16.35;77.20;99488.66;5048142;28;20040;-78
2022/08/31 08:18:57;;;;;;;7.53;6.65;;;;;;;16.10;78.01;99492.16;5049196;28;20033;-78
2022/08/31 08:21:23;;;;;;;9.90;7.03;;;;;;;16.28;77.99;99502.41;5064645;28;20385;-78
2022/08/31 08:23:48;;;;;;;9.18;6.53;;;;;;;16.68;77.06;99501.59;5068223;28;20066;-78
2022/08/31 08:26:13;;;;;;;7.93;6.35;;;;;;;16.23;77.40;99493.50;5070273;28;20032;-78
2022/08/31 08:28:39;;;;;;;9.05;6.65;;;;;;;16.31;77.31;99501.88;5030791;28;20025;-78
2022/08/31 08:31:06;;;;;;;10.85;6.57;;;;;;;16.42;77.17;99489.22;5060167;28;20572;-78
2022/08/31 08:33:34;;;;;;;8.80;7.20;;;;;;;16.17;78.65;99506.16;5033269;28;20380;-78
2022/08/31 08:36:06;;;;;;;11.02;6.80;;;;;;;16.14;77.85;99489.75;5064141;28;20384;-78
2022/08/31 08:38:31;;;;;;;9.40;6.10;;;;;;;16.69;76.34;99491.63;5083604;28;20063;-78
2022/08/31 08:40:59;;;;;;;14.98;7.20;;;;;;;16.94;75.19;99496.97;5046596;28;20577;-78
2022/08/31 08:43:34;;;;;;;9.98;6.00;;;;;;;17.18;75.25;99500.66;5072662;28;20976;-78
2022/08/31 08:46:03;;;;;;;15.85;5.97;;;;;;;17.35;74.71;99493.03;5064987;28;20055;-78
2022/08/31 08:48:32;;;;;;;9.38;5.03;;;;;;;17.91;72.20;99483.56;5067176;28;20042;-78
2022/08/31 08:51:02;;;;;;;8.05;4.72;;;;;;;17.87;72.66;99495.22;5064024;28;20786;-78
2022/08/31 08:53:30;;;;;;;7.78;5.53;;;;;;;18.17;71.92;99496.91;5049016;28;20392;-79
2022/08/31 08:55:56;;;;;;;11.07;6.55;;;;;;;17.75;72.65;99484.78;5061221;28;20029;-78
2022/08/31 08:58:23;;;;;;;6.70;5.70;;;;;;;18.11;71.54;99498.84;5067693;28;20029;-78
2022/08/31 09:00:52;;;;;;;21.52;7.03;;;;;;;18.06;73.13;99501.59;5057722;28;20769;-78
2022/08/31 09:03:43;;;;;;;10.52;6.40;;;;;;;18.10;72.84;99507.22;5061462;28;20020;-78
2022/08/31 09:06:29;;;;;;;17.48;6.55;;;;;;;17.64;71.95;99499.44;5063980;28;20647;-78
2022/08/31 09:09:07;;;;;;;8.43;6.20;;;;;;;17.63;71.84;99515.88;5061540;28;20035;-78
2022/08/31 09:11:57;;;;;;;8.75;7.30;;;;;;;17.71;70.60;99491.00;5057703;28;20457;-78
2022/08/31 09:14:47;;;;;;;13.32;6.65;;;;;;;17.96;71.02;99499.75;5064469;28;20081;-78
2022/08/31 09:17:23;;;;;;;12.00;6.38;;;;;;;17.98;71.91;99502.97;5061824;28;20087;-78
2022/08/31 09:20:04;;;;;;;8.10;6.05;;;;;;;18.53;69.83;99479.34;5067402;28;20044;-78
2022/08/31 09:22:33;;;;;;;9.35;6.45;;;;;;;18.37;71.13;99491.38;5067875;28;20435;-78
2022/08/31 09:24:59;;;;;;;6.97;6.18;;;;;;;18.15;69.32;99491.00;5066492;28;20506;-78
2022/08/31 09:27:56;;;;;;;9.35;6.13;;;;;;;18.30;68.85;99491.69;5058216;28;20029;-78
2022/08/31 09:30:50;;;;;;;9.63;5.93;;;;;;;18.45;68.75;99491.59;5063336;28;20024;-78
2022/08/31 09:33:18;;;;;;;5.45;4.95;;;;;;;18.29;67.19;99494.66;5062970;28;20028;-78
2022/08/31 09:35:44;;;;;;;5.85;5.35;;;;;;;18.42;67.17;99491.28;5046776;28;20041;-78
2022/08/31 09:38:24;;;;;;;5.45;4.95;;;;;;;18.96;65.96;99483.75;5064722;28;20051;-78
2022/08/31 09:40:51;;;;;;;8.07;4.97;;;;;;;18.82;65.81;99496.38;5049931;28;20050;-78
2022/08/31 09:43:23;;;;;;;8.82;4.47;;;;;;;18.99;65.13;99491.31;5067526;28;20059;-78
2022/08/31 09:46:03;;;;;;;7.28;4.35;;;;;;;19.63;64.28;99490.00;5067434;28;20028;-78
2022/08/31 09:48:55;;;;;;;4.40;3.47;;;;;;;19.27;62.66;99479.59;5062824;28;20480;-78
2022/08/31 09:51:27;;;;;;;4.88;3.92;;;;;;;19.32;62.95;99486.88;5064955;28;20111;-78
2022/08/31 09:56:56;;;;;;;6.60;4.07;;;;;;;20.17;61.56;99482.97;5060890;28;20523;-79
2022/08/31 09:59:48;;;;;;;5.18;3.67;;;;;;;20.45;61.62;99486.59;5065448;28;20788;-78
2022/08/31 10:02:21;;;;;;;4.97;3.15;;;;;;;20.13;60.15;99481.16;5061323;28;20138;-79
2022/08/31 10:04:53;;;;;;;3.05;2.85;;;;;;;20.26;61.37;99476.91;5055225;28;20032;-78
2022/08/31 10:07:31;;;;;;;3.35;3.05;;;;;;;20.19;60.10;99477.25;5064803;28;20097;-78
2022/08/31 10:09:59;;;;;;;4.63;3.25;;;;;;;20.34;60.19;99476.22;5057798;28;20081;-78
2022/08/31 10:12:30;;;;;;;5.75;3.00;;;;;;;20.11;59.47;99469.78;5065923;28;20500;-78
2022/08/31 10:15:02;;;;;;;6.28;2.78;;;;;;;19.97;59.54;99472.44;5068696;28;20565;-78
2022/08/31 10:17:34;;;;;;;3.38;2.85;;;;;;;19.80;59.11;99468.63;5063915;28;20063;-78
2022/08/31 10:20:14;;;;;;;2.90;2.70;;;;;;;19.77;59.01;99477.34;5061554;28;20020;-78
2022/08/31 10:22:51;;;;;;;3.60;2.47;;;;;;;20.12;58.25;99461.34;5056061;28;20048;-78
2022/08/31 10:25:35;;;;;;;3.90;2.70;;;;;;;19.85;59.42;99482.13;5065191;28;20143;-78
2022/08/31 10:28:19;;;;;;;3.70;2.35;;;;;;;19.67;59.51;99464.75;5065912;28;20028;-78
2022/08/31 10:30:56;;;;;;;5.55;2.80;;;;;;;19.61;60.16;99465.94;5069003;28;20021;-78
2022/08/31 10:35:01;;;;;;;3.55;2.28;;;;;;;19.64;59.90;99476.16;5059536;28;20025;-78
2022/08/31 10:36:15;;;;;;;2.70;2.50;;;;;;;19.44;60.08;99458.28;5058343;28;20036;-78
2022/08/31 10:38:44;;;;;;;3.35;2.60;;;;;;;19.50;59.88;99459.06;5061023;28;20413;-78
2022/08/31 10:41:17;;;;;;;2.35;2.15;;;;;;;19.54;60.28;99467.38;5061044;28;20039;-78
2022/08/31 10:43:54;;;;;;;2.22;2.08;;;;;;;19.75;60.33;99460.56;5066681;28;20492;-78
2022/08/31 10:46:19;;;;;;;2.40;2.10;;;;;;;20.10;59.49;99460.84;5074899;28;20028;-78
2022/08/31 10:48:45;;;;;;;2.65;2.00;;;;;;;19.55;59.73;99464.38;5070715;28;20696;-78
2022/08/31 10:51:18;;;;;;;4.05;2.13;;;;;;;19.61;59.61;99473.25;5066376;28;20421;-78
2022/08/31 10:54:05;;;;;;;2.30;2.10;;;;;;;19.65;58.95;99466.97;5067389;28;20033;-78
2022/08/31 10:56:57;;;;;;;2.88;2.00;;;;;;;20.00;59.67;99469.16;5065555;28;20034;-78
2022/08/31 10:59:46;;;;;;;3.85;2.30;;;;;;;19.74;59.95;99446.25;5062461;28;20024;-78
2022/08/31 11:02:34;;;;;;;3.42;2.35;;;;;;;20.33;59.28;99466.50;5074984;28;20356;-78
2022/08/31 11:05:21;;;;;;;2.50;2.30;;;;;;;19.99;58.35;99466.72;5064140;28;20088;-78
2022/08/31 11:08:11;;;;;;;2.65;2.30;;;;;;;20.09;57.74;99466.56;5067802;28;20059;-78
2022/08/31 11:10:50;;;;;;;3.10;1.73;;;;;;;20.21;57.42;99461.53;5063416;28;20032;-79
2022/08/31 11:13:52;;;;;;;3.42;2.10;;;;;;;20.09;57.67;99434.06;5062065;28;20096;-78
2022/08/31 11:16:26;;;;;;;1.75;1.65;;;;;;;20.48;57.35;99469.75;5049781;28;20048;-78
2022/08/31 11:19:19;;;;;;;5.78;2.08;;;;;;;20.86;57.79;99444.06;5073674;28;20033;-78
2022/08/31 11:21:49;;;;;;;2.03;1.85;;;;;;;20.62;55.30;99458.94;5074725;28;20435;-78
2022/08/31 11:24:59;;;;;;;1.90;1.80;;;;;;;20.39;55.66;99449.84;5083330;28;20403;-78
2022/08/31 11:27:43;;;;;;;5.50;1.73;;;;;;;20.50;55.94;99467.53;5076932;28;20111;-78
2022/08/31 11:30:26;;;;;;;6.68;1.92;;;;;;;20.21;56.74;99445.25;5071797;28;20107;-79
2022/08/31 11:33:06;;;;;;;4.07;1.52;;;;;;;20.34;56.96;99459.94;5071788;28;20025;-79
2022/08/31 11:36:05;;;;;;;2.72;1.60;;;;;;;20.46;56.63;99458.41;5071196;28;20476;-79
2022/08/31 11:38:40;;;;;;;2.92;1.98;;;;;;;20.79;56.41;99451.78;5064036;28;20070;-79
2022/08/31 11:41:09;;;;;;;5.38;2.10;;;;;;;20.37;55.28;99451.22;5055997;28;20059;-79
2022/08/31 11:43:35;;;;;;;1.92;1.80;;;;;;;20.49;56.12;99449.66;5063866;28;20476;-78
2022/08/31 11:46:25;;;;;;;8.40;3.20;;;;;;;20.48;55.52;99452.66;5063622;28;20026;-79
2022/08/31 11:48:50;;;;;;;3.38;2.17;;;;;;;20.34;56.04;99441.78;5062167;28;20032;-78
2022/08/31 11:51:46;;;;;;;3.20;1.33;;;;;;;20.91;55.35;99429.59;5061579;28;20032;-79
2022/08/31 11:54:12;;;;;;;2.80;1.75;;;;;;;21.05;55.48;99446.72;5047080;28;20545;-79
2022/08/31 11:56:43;;;;;;;4.22;2.13;;;;;;;21.04;55.17;99419.88;5061404;28;20024;-79